sensor_id;sensor_type;location;lat;lon;timestamp;temperature;humidity
3678;DHT22;1855;50.934;6.958;2023-09-18T00:02:06;21.40;99.90
3678;DHT22;1855;50.934;6.958;2023-09-18T00:04:33;21.40;99.90
3678;DHT22;1855;50.934;6.958;2023-09-18T00:07:00;21.40;99.90
3678;DHT22;1855;50.934;6.958;2023-09-18T00:09:27;21.30;99.90
3678;DHT22;1855;50.934;6.958;2023-09-18T00:11:53;21.40;99.90
3678;DHT22;1855;50.934;6.958;2023-09-18T00:14:21;21.40;99.90
3678;DHT22;1855;50.934;6.958;2023-09-18T00:16:49;21.40;99.90
3678;DHT22;1855;50.934;6.958;2023-09-18T00:19:17;21.40;99.90
3678;DHT22;1855;50.934;6.958;2023-09-18T00:21:44;21.30;99.90
3678;DHT22;1855;50.934;6.958;2023-09-18T00:24:10;21.30;99.80
3678;DHT22;1855;50.934;6.958;2023-09-18T00:26:37;21.30;99.60
3678;DHT22;1855;50.934;6.958;2023-09-18T00:29:04;21.30;99.70
3678;DHT22;1855;50.934;6.958;2023-09-18T00:31:32;21.30;99.60
3678;DHT22;1855;50.934;6.958;2023-09-18T00:33:58;21.30;99.60
3678;DHT22;1855;50.934;6.958;2023-09-18T00:36:25;21.30;99.50
3678;DHT22;1855;50.934;6.958;2023-09-18T00:38:52;21.30;99.60
3678;DHT22;1855;50.934;6.958;2023-09-18T00:41:18;21.20;99.30
3678;DHT22;1855;50.934;6.958;2023-09-18T00:43:45;21.30;99.40
3678;DHT22;1855;50.934;6.958;2023-09-18T00:46:12;21.20;99.40
3678;DHT22;1855;50.934;6.958;2023-09-18T00:48:40;21.20;99.30
3678;DHT22;1855;50.934;6.958;2023-09-18T00:51:08;21.20;99.10
3678;DHT22;1855;50.934;6.958;2023-09-18T00:53:37;21.20;99.20
3678;DHT22;1855;50.934;6.958;2023-09-18T00:56:04;21.20;99.00
3678;DHT22;1855;50.934;6.958;2023-09-18T00:58:31;21.20;99.20
3678;DHT22;1855;50.934;6.958;2023-09-18T01:00:59;21.20;99.20
3678;DHT22;1855;50.934;6.958;2023-09-18T01:03:26;21.10;99.10
3678;DHT22;1855;50.934;6.958;2023-09-18T01:05:55;21.10;99.20
3678;DHT22;1855;50.934;6.958;2023-09-18T01:08:22;21.10;99.20
3678;DHT22;1855;50.934;6.958;2023-09-18T01:10:56;21.20;99.20
3678;DHT22;1855;50.934;6.958;2023-09-18T01:13:29;21.20;99.50
3678;DHT22;1855;50.934;6.958;2023-09-18T01:16:03;21.20;98.90
3678;DHT22;1855;50.934;6.958;2023-09-18T01:18:32;21.10;99.00
3678;DHT22;1855;50.934;6.958;2023-09-18T01:21:00;21.10;99.10
3678;DHT22;1855;50.934;6.958;2023-09-18T01:23:28;21.10;99.10
3678;DHT22;1855;50.934;6.958;2023-09-18T01:25:55;21.10;99.50
3678;DHT22;1855;50.934;6.958;2023-09-18T01:28:21;21.10;99.20
3678;DHT22;1855;50.934;6.958;2023-09-18T01:30:48;21.10;99.20
3678;DHT22;1855;50.934;6.958;2023-09-18T01:33:15;21.00;99.10
3678;DHT22;1855;50.934;6.958;2023-09-18T01:35:42;21.10;99.30
3678;DHT22;1855;50.934;6.958;2023-09-18T01:38:11;21.00;99.20
3678;DHT22;1855;50.934;6.958;2023-09-18T01:40:39;21.00;99.30
3678;DHT22;1855;50.934;6.958;2023-09-18T01:43:06;21.00;99.30
3678;DHT22;1855;50.934;6.958;2023-09-18T01:45:33;21.00;99.20
3678;DHT22;1855;50.934;6.958;2023-09-18T01:48:00;21.00;99.20
3678;DHT22;1855;50.934;6.958;2023-09-18T01:50:30;21.00;99.10
3678;DHT22;1855;50.934;6.958;2023-09-18T01:52:58;21.00;99.20
3678;DHT22;1855;50.934;6.958;2023-09-18T01:55:25;21.00;99.30
3678;DHT22;1855;50.934;6.958;2023-09-18T01:57:55;21.00;99.30
3678;DHT22;1855;50.934;6.958;2023-09-18T02:00:21;21.00;99.20
3678;DHT22;1855;50.934;6.958;2023-09-18T02:02:48;21.00;99.30
3678;DHT22;1855;50.934;6.958;2023-09-18T02:05:15;21.00;99.50
3678;DHT22;1855;50.934;6.958;2023-09-18T02:07:42;20.90;99.40
3678;DHT22;1855;50.934;6.958;2023-09-18T02:10:09;20.90;99.60
3678;DHT22;1855;50.934;6.958;2023-09-18T02:12:38;20.90;99.60
3678;DHT22;1855;50.934;6.958;2023-09-18T02:15:07;20.90;99.50
3678;DHT22;1855;50.934;6.958;2023-09-18T02:17:36;20.90;99.60
3678;DHT22;1855;50.934;6.958;2023-09-18T02:20:04;20.90;99.60
3678;DHT22;1855;50.934;6.958;2023-09-18T02:22:37;20.90;99.80
3678;DHT22;1855;50.934;6.958;2023-09-18T02:25:06;20.90;99.70
3678;DHT22;1855;50.934;6.958;2023-09-18T02:27:32;20.90;99.80
3678;DHT22;1855;50.934;6.958;2023-09-18T02:29:59;20.90;99.90
3678;DHT22;1855;50.934;6.958;2023-09-18T02:32:27;20.90;99.90
3678;DHT22;1855;50.934;6.958;2023-09-18T02:34:54;20.90;99.90
3678;DHT22;1855;50.934;6.958;2023-09-18T02:37:20;20.90;99.90
3678;DHT22;1855;50.934;6.958;2023-09-18T02:39:48;20.90;99.90
3678;DHT22;1855;50.934;6.958;2023-09-18T02:42:14;20.90;99.90
3678;DHT22;1855;50.934;6.958;2023-09-18T02:44:41;20.90;99.90
3678;DHT22;1855;50.934;6.958;2023-09-18T02:47:08;20.80;99.90
3678;DHT22;1855;50.934;6.958;2023-09-18T02:49:36;20.80;99.90
3678;DHT22;1855;50.934;6.958;2023-09-18T02:52:03;20.70;99.90
3678;DHT22;1855;50.934;6.958;2023-09-18T02:54:30;20.80;99.90
3678;DHT22;1855;50.934;6.958;2023-09-18T02:56:57;20.70;99.90
3678;DHT22;1855;50.934;6.958;2023-09-18T02:59:24;20.70;99.90
3678;DHT22;1855;50.934;6.958;2023-09-18T03:01:51;20.60;99.90
3678;DHT22;1855;50.934;6.958;2023-09-18T03:04:18;20.60;99.90
3678;DHT22;1855;50.934;6.958;2023-09-18T03:06:46;20.60;99.90
3678;DHT22;1855;50.934;6.958;2023-09-18T03:09:14;20.60;99.90
3678;DHT22;1855;50.934;6.958;2023-09-18T03:11:41;20.60;99.90
3678;DHT22;1855;50.934;6.958;2023-09-18T03:14:09;20.60;99.90
3678;DHT22;1855;50.934;6.958;2023-09-18T03:16:36;20.60;99.90
3678;DHT22;1855;50.934;6.958;2023-09-18T03:19:03;20.60;99.90
3678;DHT22;1855;50.934;6.958;2023-09-18T03:21:30;20.60;99.90
3678;DHT22;1855;50.934;6.958;2023-09-18T03:24:00;20.50;99.90
3678;DHT22;1855;50.934;6.958;2023-09-18T03:26:28;20.50;99.90
3678;DHT22;1855;50.934;6.958;2023-09-18T03:28:55;20.40;99.90
3678;DHT22;1855;50.934;6.958;2023-09-18T03:31:21;20.40;99.90
3678;DHT22;1855;50.934;6.958;2023-09-18T03:33:48;20.30;99.90
3678;DHT22;1855;50.934;6.958;2023-09-18T03:36:15;20.20;99.90
3678;DHT22;1855;50.934;6.958;2023-09-18T03:38:41;20.20;99.90
3678;DHT22;1855;50.934;6.958;2023-09-18T03:41:09;20.20;99.90
3678;DHT22;1855;50.934;6.958;2023-09-18T03:43:36;20.20;99.90
3678;DHT22;1855;50.934;6.958;2023-09-18T03:46:04;20.10;99.90
3678;DHT22;1855;50.934;6.958;2023-09-18T03:48:31;20.20;99.90
3678;DHT22;1855;50.934;6.958;2023-09-18T03:51:03;20.20;99.90
3678;DHT22;1855;50.934;6.958;2023-09-18T03:53:30;20.20;99.90
3678;DHT22;1855;50.934;6.958;2023-09-18T03:55:56;20.20;99.90
3678;DHT22;1855;50.934;6.958;2023-09-18T03:58:24;20.20;99.90
3678;DHT22;1855;50.934;6.958;2023-09-18T04:00:52;20.20;99.90
3678;DHT22;1855;50.934;6.958;2023-09-18T04:03:19;20.20;99.90
3678;DHT22;1855;50.934;6.958;2023-09-18T04:05:45;20.30;99.90
3678;DHT22;1855;50.934;6.958;2023-09-18T04:08:12;20.30;99.90
3678;DHT22;1855;50.934;6.958;2023-09-18T04:10:39;20.30;99.90
3678;DHT22;1855;50.934;6.958;2023-09-18T04:13:05;20.30;99.90
3678;DHT22;1855;50.934;6.958;2023-09-18T04:15:33;20.30;99.90
3678;DHT22;1855;50.934;6.958;2023-09-18T04:18:03;20.30;99.90
3678;DHT22;1855;50.934;6.958;2023-09-18T04:20:30;20.30;99.90
3678;DHT22;1855;50.934;6.958;2023-09-18T04:23:20;20.30;99.90
3678;DHT22;1855;50.934;6.958;2023-09-18T04:25:47;20.30;99.90
3678;DHT22;1855;50.934;6.958;2023-09-18T04:28:16;20.30;99.90
3678;DHT22;1855;50.934;6.958;2023-09-18T04:30:45;20.30;99.90
3678;DHT22;1855;50.934;6.958;2023-09-18T04:33:13;20.30;99.90
3678;DHT22;1855;50.934;6.958;2023-09-18T04:35:39;20.20;99.90
3678;DHT22;1855;50.934;6.958;2023-09-18T04:38:07;20.20;99.90
3678;DHT22;1855;50.934;6.958;2023-09-18T04:40:34;20.20;99.90
3678;DHT22;1855;50.934;6.958;2023-09-18T04:43:01;20.20;99.90
3678;DHT22;1855;50.934;6.958;2023-09-18T04:45:31;20.10;99.90
3678;DHT22;1855;50.934;6.958;2023-09-18T04:47:59;20.10;99.90
3678;DHT22;1855;50.934;6.958;2023-09-18T04:50:26;20.10;99.90
3678;DHT22;1855;50.934;6.958;2023-09-18T04:52:53;20.10;99.90
3678;DHT22;1855;50.934;6.958;2023-09-18T04:55:22;20.00;99.90
3678;DHT22;1855;50.934;6.958;2023-09-18T04:57:48;20.00;99.90
3678;DHT22;1855;50.934;6.958;2023-09-18T05:00:15;20.00;99.90
3678;DHT22;1855;50.934;6.958;2023-09-18T05:02:42;20.00;99.90
3678;DHT22;1855;50.934;6.958;2023-09-18T05:05:10;19.90;99.90
3678;DHT22;1855;50.934;6.958;2023-09-18T05:07:39;19.90;99.90
3678;DHT22;1855;50.934;6.958;2023-09-18T05:10:06;19.90;99.90
3678;DHT22;1855;50.934;6.958;2023-09-18T05:12:33;19.90;99.90
3678;DHT22;1855;50.934;6.958;2023-09-18T05:15:00;19.90;99.90
3678;DHT22;1855;50.934;6.958;2023-09-18T05:17:40;19.90;99.90
3678;DHT22;1855;50.934;6.958;2023-09-18T05:20:08;19.90;99.90
3678;DHT22;1855;50.934;6.958;2023-09-18T05:22:38;19.90;99.90
3678;DHT22;1855;50.934;6.958;2023-09-18T05:25:05;19.80;99.90
3678;DHT22;1855;50.934;6.958;2023-09-18T05:27:32;19.80;99.90
3678;DHT22;1855;50.934;6.958;2023-09-18T05:29:59;19.80;99.90
3678;DHT22;1855;50.934;6.958;2023-09-18T05:32:25;19.80;99.90
3678;DHT22;1855;50.934;6.958;2023-09-18T05:34:52;19.80;99.90
3678;DHT22;1855;50.934;6.958;2023-09-18T05:37:19;19.80;99.90
3678;DHT22;1855;50.934;6.958;2023-09-18T05:39:47;19.80;99.90
3678;DHT22;1855;50.934;6.958;2023-09-18T05:42:14;19.80;99.90
3678;DHT22;1855;50.934;6.958;2023-09-18T05:44:41;19.80;99.90
3678;DHT22;1855;50.934;6.958;2023-09-18T05:47:08;19.80;99.90
3678;DHT22;1855;50.934;6.958;2023-09-18T05:49:35;19.70;99.90
3678;DHT22;1855;50.934;6.958;2023-09-18T05:52:01;19.70;99.90
3678;DHT22;1855;50.934;6.958;2023-09-18T05:54:29;19.70;99.90
3678;DHT22;1855;50.934;6.958;2023-09-18T05:56:57;19.80;99.90
3678;DHT22;1855;50.934;6.958;2023-09-18T05:59:23;19.80;99.90
3678;DHT22;1855;50.934;6.958;2023-09-18T06:01:50;19.80;99.90
3678;DHT22;1855;50.934;6.958;2023-09-18T06:04:19;19.80;99.90
3678;DHT22;1855;50.934;6.958;2023-09-18T06:06:46;19.80;99.90
3678;DHT22;1855;50.934;6.958;2023-09-18T06:09:13;19.80;99.90
3678;DHT22;1855;50.934;6.958;2023-09-18T06:11:41;19.90;99.90
3678;DHT22;1855;50.934;6.958;2023-09-18T06:14:10;19.90;99.90
3678;DHT22;1855;50.934;6.958;2023-09-18T06:16:37;19.90;99.90
3678;DHT22;1855;50.934;6.958;2023-09-18T06:19:04;20.00;99.90
3678;DHT22;1855;50.934;6.958;2023-09-18T06:21:30;20.00;99.90
3678;DHT22;1855;50.934;6.958;2023-09-18T06:23:57;20.00;99.90
3678;DHT22;1855;50.934;6.958;2023-09-18T06:26:24;20.10;99.90
3678;DHT22;1855;50.934;6.958;2023-09-18T06:28:51;20.20;99.90
3678;DHT22;1855;50.934;6.958;2023-09-18T06:31:19;20.20;99.90
3678;DHT22;1855;50.934;6.958;2023-09-18T06:33:45;20.20;99.90
3678;DHT22;1855;50.934;6.958;2023-09-18T06:36:13;20.30;99.90
3678;DHT22;1855;50.934;6.958;2023-09-18T06:38:40;20.30;99.90
3678;DHT22;1855;50.934;6.958;2023-09-18T06:41:06;20.30;99.90
3678;DHT22;1855;50.934;6.958;2023-09-18T06:43:33;20.30;99.90
3678;DHT22;1855;50.934;6.958;2023-09-18T06:46:00;20.30;99.90
3678;DHT22;1855;50.934;6.958;2023-09-18T06:48:28;20.40;99.90
3678;DHT22;1855;50.934;6.958;2023-09-18T06:50:57;20.40;99.90
3678;DHT22;1855;50.934;6.958;2023-09-18T06:53:25;20.40;99.90
3678;DHT22;1855;50.934;6.958;2023-09-18T06:55:52;20.40;99.90
3678;DHT22;1855;50.934;6.958;2023-09-18T06:58:18;20.50;99.90
3678;DHT22;1855;50.934;6.958;2023-09-18T07:00:45;20.50;99.90
3678;DHT22;1855;50.934;6.958;2023-09-18T07:03:12;20.50;99.90
3678;DHT22;1855;50.934;6.958;2023-09-18T07:05:41;20.60;99.90
3678;DHT22;1855;50.934;6.958;2023-09-18T07:08:08;20.60;99.90
3678;DHT22;1855;50.934;6.958;2023-09-18T07:10:37;20.60;99.90
3678;DHT22;1855;50.934;6.958;2023-09-18T07:13:04;20.70;99.90
3678;DHT22;1855;50.934;6.958;2023-09-18T07:15:31;20.70;99.60
3678;DHT22;1855;50.934;6.958;2023-09-18T07:17:58;20.80;99.90
3678;DHT22;1855;50.934;6.958;2023-09-18T07:20:24;20.80;99.60
3678;DHT22;1855;50.934;6.958;2023-09-18T07:22:52;20.90;99.20
3678;DHT22;1855;50.934;6.958;2023-09-18T07:25:19;21.00;98.60
3678;DHT22;1855;50.934;6.958;2023-09-18T07:27:46;21.00;98.20
3678;DHT22;1855;50.934;6.958;2023-09-18T07:30:14;21.10;97.80
3678;DHT22;1855;50.934;6.958;2023-09-18T07:32:43;21.10;97.40
3678;DHT22;1855;50.934;6.958;2023-09-18T07:35:10;21.10;97.60
3678;DHT22;1855;50.934;6.958;2023-09-18T07:37:38;21.10;97.70
3678;DHT22;1855;50.934;6.958;2023-09-18T07:40:07;21.10;97.60
3678;DHT22;1855;50.934;6.958;2023-09-18T07:42:34;21.10;97.60
3678;DHT22;1855;50.934;6.958;2023-09-18T07:45:01;21.10;97.40
3678;DHT22;1855;50.934;6.958;2023-09-18T07:47:28;21.10;97.60
3678;DHT22;1855;50.934;6.958;2023-09-18T07:49:57;21.10;96.90
3678;DHT22;1855;50.934;6.958;2023-09-18T07:52:23;21.20;96.60
3678;DHT22;1855;50.934;6.958;2023-09-18T07:54:50;21.10;96.60
3678;DHT22;1855;50.934;6.958;2023-09-18T07:57:18;21.10;96.90
3678;DHT22;1855;50.934;6.958;2023-09-18T07:59:46;21.20;97.00
3678;DHT22;1855;50.934;6.958;2023-09-18T08:02:13;21.20;96.20
3678;DHT22;1855;50.934;6.958;2023-09-18T08:04:39;21.20;95.60
3678;DHT22;1855;50.934;6.958;2023-09-18T08:07:06;21.20;96.00
3678;DHT22;1855;50.934;6.958;2023-09-18T08:09:33;21.20;96.10
3678;DHT22;1855;50.934;6.958;2023-09-18T08:12:01;21.20;95.90
3678;DHT22;1855;50.934;6.958;2023-09-18T08:14:30;21.20;95.90
3678;DHT22;1855;50.934;6.958;2023-09-18T08:16:57;21.20;95.90
3678;DHT22;1855;50.934;6.958;2023-09-18T08:19:24;21.20;95.00
3678;DHT22;1855;50.934;6.958;2023-09-18T08:21:53;21.20;95.00
3678;DHT22;1855;50.934;6.958;2023-09-18T08:24:20;21.20;95.20
3678;DHT22;1855;50.934;6.958;2023-09-18T08:26:47;21.30;95.50
3678;DHT22;1855;50.934;6.958;2023-09-18T08:29:13;21.30;95.30
3678;DHT22;1855;50.934;6.958;2023-09-18T08:31:42;21.30;94.80
3678;DHT22;1855;50.934;6.958;2023-09-18T08:34:08;21.30;94.60
3678;DHT22;1855;50.934;6.958;2023-09-18T08:36:35;21.30;94.30
3678;DHT22;1855;50.934;6.958;2023-09-18T08:39:03;21.40;94.10
3678;DHT22;1855;50.934;6.958;2023-09-18T08:41:32;21.40;94.40
3678;DHT22;1855;50.934;6.958;2023-09-18T08:44:01;21.40;94.60
3678;DHT22;1855;50.934;6.958;2023-09-18T08:46:29;21.40;94.40
3678;DHT22;1855;50.934;6.958;2023-09-18T08:48:57;21.40;94.20
3678;DHT22;1855;50.934;6.958;2023-09-18T08:51:26;21.50;94.50
3678;DHT22;1855;50.934;6.958;2023-09-18T08:53:54;21.50;93.30
3678;DHT22;1855;50.934;6.958;2023-09-18T08:56:21;21.50;94.00
3678;DHT22;1855;50.934;6.958;2023-09-18T08:58:49;21.50;93.50
3678;DHT22;1855;50.934;6.958;2023-09-18T09:01:16;21.60;93.70
3678;DHT22;1855;50.934;6.958;2023-09-18T09:03:43;21.60;93.10
3678;DHT22;1855;50.934;6.958;2023-09-18T09:06:12;21.70;93.10
3678;DHT22;1855;50.934;6.958;2023-09-18T09:08:39;21.80;93.00
3678;DHT22;1855;50.934;6.958;2023-09-18T09:11:06;21.90;92.30
3678;DHT22;1855;50.934;6.958;2023-09-18T09:13:32;21.90;92.00
3678;DHT22;1855;50.934;6.958;2023-09-18T09:16:00;21.90;91.50
3678;DHT22;1855;50.934;6.958;2023-09-18T09:18:28;21.90;91.80
3678;DHT22;1855;50.934;6.958;2023-09-18T09:20:58;21.90;91.70
3678;DHT22;1855;50.934;6.958;2023-09-18T09:23:27;21.90;91.80
3678;DHT22;1855;50.934;6.958;2023-09-18T09:26:11;21.90;91.70
3678;DHT22;1855;50.934;6.958;2023-09-18T09:28:38;21.90;91.00
3678;DHT22;1855;50.934;6.958;2023-09-18T09:31:05;21.90;91.20
3678;DHT22;1855;50.934;6.958;2023-09-18T09:33:32;21.90;91.50
3678;DHT22;1855;50.934;6.958;2023-09-18T09:35:59;21.90;91.10
3678;DHT22;1855;50.934;6.958;2023-09-18T09:38:30;21.90;91.20
3678;DHT22;1855;50.934;6.958;2023-09-18T09:40:59;22.00;90.70
3678;DHT22;1855;50.934;6.958;2023-09-18T09:43:27;22.00;91.10
3678;DHT22;1855;50.934;6.958;2023-09-18T09:45:57;22.10;91.00
3678;DHT22;1855;50.934;6.958;2023-09-18T09:48:25;22.20;89.90
3678;DHT22;1855;50.934;6.958;2023-09-18T09:50:52;22.30;90.20
3678;DHT22;1855;50.934;6.958;2023-09-18T09:53:44;22.30;90.20
3678;DHT22;1855;50.934;6.958;2023-09-18T09:56:12;22.30;89.20
3678;DHT22;1855;50.934;6.958;2023-09-18T09:58:39;22.40;88.80
3678;DHT22;1855;50.934;6.958;2023-09-18T10:01:11;22.60;88.40
3678;DHT22;1855;50.934;6.958;2023-09-18T10:03:44;22.70;87.80
3678;DHT22;1855;50.934;6.958;2023-09-18T10:06:11;22.70;86.80
3678;DHT22;1855;50.934;6.958;2023-09-18T10:08:40;22.70;85.70
3678;DHT22;1855;50.934;6.958;2023-09-18T10:11:09;22.70;85.70
3678;DHT22;1855;50.934;6.958;2023-09-18T10:13:41;22.70;84.70
3678;DHT22;1855;50.934;6.958;2023-09-18T10:16:12;22.70;85.50
3678;DHT22;1855;50.934;6.958;2023-09-18T10:18:47;22.90;84.80
3678;DHT22;1855;50.934;6.958;2023-09-18T10:21:22;23.00;83.10
3678;DHT22;1855;50.934;6.958;2023-09-18T10:23:59;23.10;83.50
3678;DHT22;1855;50.934;6.958;2023-09-18T10:26:32;23.30;81.50
3678;DHT22;1855;50.934;6.958;2023-09-18T10:29:04;23.40;82.00
3678;DHT22;1855;50.934;6.958;2023-09-18T10:31:38;23.60;79.10
3678;DHT22;1855;50.934;6.958;2023-09-18T10:34:06;23.90;78.00
3678;DHT22;1855;50.934;6.958;2023-09-18T10:36:34;24.10;77.10
3678;DHT22;1855;50.934;6.958;2023-09-18T10:39:01;24.00;77.80
3678;DHT22;1855;50.934;6.958;2023-09-18T10:41:35;24.20;76.00
3678;DHT22;1855;50.934;6.958;2023-09-18T10:44:03;24.50;74.40
3678;DHT22;1855;50.934;6.958;2023-09-18T10:46:30;24.50;73.30
3678;DHT22;1855;50.934;6.958;2023-09-18T10:48:58;24.50;73.30
3678;DHT22;1855;50.934;6.958;2023-09-18T10:51:25;24.50;72.40
3678;DHT22;1855;50.934;6.958;2023-09-18T10:53:52;24.60;72.50
3678;DHT22;1855;50.934;6.958;2023-09-18T10:56:19;24.80;73.50
3678;DHT22;1855;50.934;6.958;2023-09-18T10:58:56;25.00;71.40
3678;DHT22;1855;50.934;6.958;2023-09-18T11:01:24;25.20;71.40
3678;DHT22;1855;50.934;6.958;2023-09-18T11:03:52;25.40;70.30
3678;DHT22;1855;50.934;6.958;2023-09-18T11:06:19;25.60;69.20
3678;DHT22;1855;50.934;6.958;2023-09-18T11:08:53;25.70;69.00
3678;DHT22;1855;50.934;6.958;2023-09-18T11:11:27;26.00;66.70
3678;DHT22;1855;50.934;6.958;2023-09-18T11:13:56;26.20;64.50
3678;DHT22;1855;50.934;6.958;2023-09-18T11:16:36;26.30;62.00
3678;DHT22;1855;50.934;6.958;2023-09-18T11:19:16;26.40;60.50
3678;DHT22;1855;50.934;6.958;2023-09-18T11:21:45;26.30;61.60
3678;DHT22;1855;50.934;6.958;2023-09-18T11:24:16;26.20;61.00
3678;DHT22;1855;50.934;6.958;2023-09-18T11:26:45;26.20;60.00
3678;DHT22;1855;50.934;6.958;2023-09-18T11:29:16;26.20;60.50
3678;DHT22;1855;50.934;6.958;2023-09-18T11:31:46;26.30;60.00
3678;DHT22;1855;50.934;6.958;2023-09-18T11:34:15;26.30;59.70
3678;DHT22;1855;50.934;6.958;2023-09-18T11:36:42;26.30;59.60
3678;DHT22;1855;50.934;6.958;2023-09-18T11:39:11;26.20;59.30
3678;DHT22;1855;50.934;6.958;2023-09-18T11:41:39;26.00;59.00
3678;DHT22;1855;50.934;6.958;2023-09-18T11:44:32;25.90;59.80
3678;DHT22;1855;50.934;6.958;2023-09-18T11:47:17;25.90;60.50
3678;DHT22;1855;50.934;6.958;2023-09-18T11:49:49;26.00;60.40
3678;DHT22;1855;50.934;6.958;2023-09-18T11:52:20;26.10;59.80
3678;DHT22;1855;50.934;6.958;2023-09-18T11:54:47;26.20;57.90
3678;DHT22;1855;50.934;6.958;2023-09-18T11:57:15;26.30;58.80
3678;DHT22;1855;50.934;6.958;2023-09-18T11:59:45;26.30;57.90
3678;DHT22;1855;50.934;6.958;2023-09-18T12:02:13;26.60;58.20
3678;DHT22;1855;50.934;6.958;2023-09-18T12:04:46;26.90;55.10
3678;DHT22;1855;50.934;6.958;2023-09-18T12:07:13;27.00;55.50
3678;DHT22;1855;50.934;6.958;2023-09-18T12:09:40;26.90;57.10
3678;DHT22;1855;50.934;6.958;2023-09-18T12:12:07;27.00;55.00
3678;DHT22;1855;50.934;6.958;2023-09-18T12:14:34;27.00;52.20
3678;DHT22;1855;50.934;6.958;2023-09-18T12:17:03;27.00;52.50
3678;DHT22;1855;50.934;6.958;2023-09-18T12:19:30;26.90;52.60
3678;DHT22;1855;50.934;6.958;2023-09-18T12:21:57;26.70;52.90
3678;DHT22;1855;50.934;6.958;2023-09-18T12:24:24;26.60;51.00
3678;DHT22;1855;50.934;6.958;2023-09-18T12:26:52;26.40;54.00
3678;DHT22;1855;50.934;6.958;2023-09-18T12:29:19;26.40;54.30
3678;DHT22;1855;50.934;6.958;2023-09-18T12:31:46;26.70;54.30
3678;DHT22;1855;50.934;6.958;2023-09-18T12:34:16;26.90;50.90
3678;DHT22;1855;50.934;6.958;2023-09-18T12:36:43;27.10;51.10
3678;DHT22;1855;50.934;6.958;2023-09-18T12:39:12;27.30;49.20
3678;DHT22;1855;50.934;6.958;2023-09-18T12:41:42;27.40;48.50
3678;DHT22;1855;50.934;6.958;2023-09-18T12:44:09;27.30;48.90
3678;DHT22;1855;50.934;6.958;2023-09-18T12:46:37;27.40;50.00
3678;DHT22;1855;50.934;6.958;2023-09-18T12:49:21;27.50;48.90
3678;DHT22;1855;50.934;6.958;2023-09-18T12:51:56;27.70;47.50
3678;DHT22;1855;50.934;6.958;2023-09-18T12:54:36;27.70;48.20
3678;DHT22;1855;50.934;6.958;2023-09-18T12:57:05;27.80;49.00
3678;DHT22;1855;50.934;6.958;2023-09-18T12:59:32;28.00;45.30
3678;DHT22;1855;50.934;6.958;2023-09-18T13:02:01;28.10;45.40
3678;DHT22;1855;50.934;6.958;2023-09-18T13:04:31;28.00;45.00
3678;DHT22;1855;50.934;6.958;2023-09-18T13:07:08;28.00;45.10
3678;DHT22;1855;50.934;6.958;2023-09-18T13:09:35;28.00;44.40
3678;DHT22;1855;50.934;6.958;2023-09-18T13:12:03;28.00;44.00
3678;DHT22;1855;50.934;6.958;2023-09-18T13:14:30;28.00;42.80
3678;DHT22;1855;50.934;6.958;2023-09-18T13:17:17;27.90;42.00
3678;DHT22;1855;50.934;6.958;2023-09-18T13:19:45;27.80;43.40
3678;DHT22;1855;50.934;6.958;2023-09-18T13:22:22;27.80;43.10
3678;DHT22;1855;50.934;6.958;2023-09-18T13:24:55;28.00;42.30
3678;DHT22;1855;50.934;6.958;2023-09-18T13:27:22;28.30;41.20
3678;DHT22;1855;50.934;6.958;2023-09-18T13:29:49;28.20;40.80
3678;DHT22;1855;50.934;6.958;2023-09-18T13:32:18;28.30;41.20
3678;DHT22;1855;50.934;6.958;2023-09-18T13:34:46;28.40;41.00
3678;DHT22;1855;50.934;6.958;2023-09-18T13:37:12;28.50;41.00
3678;DHT22;1855;50.934;6.958;2023-09-18T13:39:42;28.30;42.60
3678;DHT22;1855;50.934;6.958;2023-09-18T13:42:11;27.90;43.40
3678;DHT22;1855;50.934;6.958;2023-09-18T13:44:38;27.80;44.50
3678;DHT22;1855;50.934;6.958;2023-09-18T13:47:04;27.60;45.20
3678;DHT22;1855;50.934;6.958;2023-09-18T13:49:31;27.30;46.20
3678;DHT22;1855;50.934;6.958;2023-09-18T13:51:59;27.40;45.20
3678;DHT22;1855;50.934;6.958;2023-09-18T13:54:26;27.60;44.90
3678;DHT22;1855;50.934;6.958;2023-09-18T13:56:53;28.10;43.00
3678;DHT22;1855;50.934;6.958;2023-09-18T13:59:20;28.10;42.30
3678;DHT22;1855;50.934;6.958;2023-09-18T14:01:47;28.00;41.60
3678;DHT22;1855;50.934;6.958;2023-09-18T14:04:14;27.90;42.80
3678;DHT22;1855;50.934;6.958;2023-09-18T14:06:41;28.10;40.50
3678;DHT22;1855;50.934;6.958;2023-09-18T14:09:10;28.40;40.20
3678;DHT22;1855;50.934;6.958;2023-09-18T14:11:36;28.80;39.30
3678;DHT22;1855;50.934;6.958;2023-09-18T14:14:03;28.70;38.30
3678;DHT22;1855;50.934;6.958;2023-09-18T14:16:30;28.60;38.20
3678;DHT22;1855;50.934;6.958;2023-09-18T14:18:58;28.70;38.80
3678;DHT22;1855;50.934;6.958;2023-09-18T14:21:25;28.60;39.10
3678;DHT22;1855;50.934;6.958;2023-09-18T14:23:53;28.60;39.00
3678;DHT22;1855;50.934;6.958;2023-09-18T14:26:21;28.50;39.60
3678;DHT22;1855;50.934;6.958;2023-09-18T14:28:48;28.60;39.90
3678;DHT22;1855;50.934;6.958;2023-09-18T14:31:16;28.60;39.70
3678;DHT22;1855;50.934;6.958;2023-09-18T14:33:43;28.60;39.30
3678;DHT22;1855;50.934;6.958;2023-09-18T14:36:10;28.40;39.90
3678;DHT22;1855;50.934;6.958;2023-09-18T14:38:37;28.20;41.10
3678;DHT22;1855;50.934;6.958;2023-09-18T14:41:05;28.10;40.70
3678;DHT22;1855;50.934;6.958;2023-09-18T14:43:34;28.10;40.20
3678;DHT22;1855;50.934;6.958;2023-09-18T14:46:00;28.00;40.10
3678;DHT22;1855;50.934;6.958;2023-09-18T14:48:27;27.90;40.30
3678;DHT22;1855;50.934;6.958;2023-09-18T14:50:56;27.60;41.70
3678;DHT22;1855;50.934;6.958;2023-09-18T14:53:23;27.70;41.40
3678;DHT22;1855;50.934;6.958;2023-09-18T14:55:50;28.10;40.80
3678;DHT22;1855;50.934;6.958;2023-09-18T14:58:17;28.50;39.30
3678;DHT22;1855;50.934;6.958;2023-09-18T15:00:48;28.60;38.90
3678;DHT22;1855;50.934;6.958;2023-09-18T15:03:15;28.80;39.00
3678;DHT22;1855;50.934;6.958;2023-09-18T15:05:42;28.50;38.90
3678;DHT22;1855;50.934;6.958;2023-09-18T15:08:09;28.00;39.50
3678;DHT22;1855;50.934;6.958;2023-09-18T15:10:36;27.80;40.10
3678;DHT22;1855;50.934;6.958;2023-09-18T15:13:03;27.80;39.70
3678;DHT22;1855;50.934;6.958;2023-09-18T15:15:29;28.00;39.60
3678;DHT22;1855;50.934;6.958;2023-09-18T15:17:58;28.50;38.20
3678;DHT22;1855;50.934;6.958;2023-09-18T15:20:24;28.70;38.70
3678;DHT22;1855;50.934;6.958;2023-09-18T15:22:52;28.80;38.20
3678;DHT22;1855;50.934;6.958;2023-09-18T15:25:21;29.00;38.20
3678;DHT22;1855;50.934;6.958;2023-09-18T15:27:48;29.10;37.80
3678;DHT22;1855;50.934;6.958;2023-09-18T15:30:15;29.20;36.90
3678;DHT22;1855;50.934;6.958;2023-09-18T15:32:49;29.30;37.70
3678;DHT22;1855;50.934;6.958;2023-09-18T15:35:20;29.20;37.10
3678;DHT22;1855;50.934;6.958;2023-09-18T15:37:47;29.30;37.10
3678;DHT22;1855;50.934;6.958;2023-09-18T15:40:14;29.40;37.20
3678;DHT22;1855;50.934;6.958;2023-09-18T15:42:43;29.30;36.50
3678;DHT22;1855;50.934;6.958;2023-09-18T15:45:10;28.90;37.00
3678;DHT22;1855;50.934;6.958;2023-09-18T15:47:37;28.50;37.80
3678;DHT22;1855;50.934;6.958;2023-09-18T15:50:04;28.20;39.00
3678;DHT22;1855;50.934;6.958;2023-09-18T15:52:33;27.80;39.30
3678;DHT22;1855;50.934;6.958;2023-09-18T15:54:59;27.20;40.30
3678;DHT22;1855;50.934;6.958;2023-09-18T15:57:28;26.70;41.70
3678;DHT22;1855;50.934;6.958;2023-09-18T15:59:55;26.40;42.50
3678;DHT22;1855;50.934;6.958;2023-09-18T16:02:23;26.10;43.20
3678;DHT22;1855;50.934;6.958;2023-09-18T16:04:50;25.80;43.50
3678;DHT22;1855;50.934;6.958;2023-09-18T16:07:18;25.60;43.80
3678;DHT22;1855;50.934;6.958;2023-09-18T16:09:46;25.40;45.10